createdAt,value
2022-10-31T00:01:11.584Z,7.93
2022-10-31T00:03:38.119Z,7.07
2022-10-31T00:06:05.104Z,7.28
2022-10-31T00:08:32.080Z,7.05
2022-10-31T00:10:58.632Z,6.93
2022-10-31T00:13:25.623Z,6.97
2022-10-31T00:15:52.609Z,6.75
2022-10-31T00:18:19.594Z,6.88
2022-10-31T00:20:46.318Z,6.63
2022-10-31T00:23:13.313Z,7.15
2022-10-31T00:25:40.929Z,7.05
2022-10-31T00:28:10.226Z,6.70
2022-10-31T00:30:37.289Z,7.50
2022-10-31T00:33:06.030Z,7.15
2022-10-31T00:35:33.560Z,7.00
2022-10-31T00:38:00.665Z,5.95
2022-10-31T00:40:27.841Z,6.35
2022-10-31T00:42:54.983Z,6.57
2022-10-31T00:45:21.554Z,6.43
2022-10-31T00:47:48.515Z,6.47
2022-10-31T00:50:15.122Z,6.57
2022-10-31T00:52:42.056Z,5.90
2022-10-31T00:55:09.016Z,6.50
2022-10-31T00:57:35.531Z,6.55
2022-10-31T01:00:02.467Z,6.68
2022-10-31T01:02:29.533Z,6.82
2022-10-31T01:04:56.134Z,6.55
2022-10-31T01:07:23.097Z,7.45
2022-10-31T01:09:49.717Z,7.50
2022-10-31T01:12:16.707Z,6.93
2022-10-31T01:14:46.581Z,6.93
2022-10-31T01:17:14.545Z,6.35
2022-10-31T01:19:41.152Z,6.05
2022-10-31T01:22:08.153Z,6.40
2022-10-31T01:24:34.805Z,6.18
2022-10-31T01:27:01.747Z,6.00
2022-10-31T01:29:28.301Z,6.00
2022-10-31T01:31:55.250Z,5.88
2022-10-31T01:34:21.812Z,5.03
2022-10-31T01:36:52.624Z,5.75
2022-10-31T01:39:20.693Z,6.10
2022-10-31T01:41:52.390Z,6.47
2022-10-31T01:44:19.273Z,5.90
2022-10-31T01:47:00.284Z,6.00
2022-10-31T01:49:27.212Z,5.93
2022-10-31T01:52:04.702Z,6.60
2022-10-31T01:54:37.287Z,6.32
2022-10-31T01:57:08.492Z,6.40
2022-10-31T01:59:41.025Z,6.60
2022-10-31T02:02:08.090Z,6.75
2022-10-31T02:04:36.018Z,6.97
2022-10-31T02:07:08.250Z,6.75
2022-10-31T02:09:37.004Z,6.45
2022-10-31T02:12:04.201Z,6.07
2022-10-31T02:14:32.412Z,6.05
2022-10-31T02:16:59.309Z,6.32
2022-10-31T02:19:44.130Z,7.47
2022-10-31T02:22:23.538Z,6.43
2022-10-31T02:25:04.233Z,6.78
2022-10-31T02:27:50.080Z,7.03
2022-10-31T02:30:24.725Z,6.53
2022-10-31T02:33:04.229Z,7.85
2022-10-31T02:36:04.208Z,8.48
2022-10-31T02:38:39.435Z,8.65
2022-10-31T02:41:33.380Z,8.95
2022-10-31T02:44:22.407Z,7.43
2022-10-31T02:46:58.084Z,7.63
2022-10-31T02:49:31.372Z,7.40
2022-10-31T02:51:58.308Z,7.57
2022-10-31T02:54:28.452Z,7.70
2022-10-31T02:57:15.721Z,7.18
2022-10-31T02:59:48.720Z,7.13
2022-10-31T03:02:37.604Z,6.38
2022-10-31T03:05:26.182Z,5.82
2022-10-31T03:08:08.864Z,6.20
2022-10-31T03:10:42.950Z,8.32
2022-10-31T03:13:18.416Z,7.85
2022-10-31T03:15:50.235Z,8.10
2022-10-31T03:18:20.249Z,8.32
2022-10-31T03:20:56.562Z,7.70
2022-10-31T03:23:25.861Z,7.80
2022-10-31T03:25:55.292Z,8.32
2022-10-31T03:28:30.924Z,8.07
2022-10-31T03:31:02.264Z,8.63
2022-10-31T03:33:34.575Z,8.25
2022-10-31T03:36:05.038Z,9.35
2022-10-31T03:38:33.378Z,9.40
2022-10-31T03:41:03.753Z,8.38
2022-10-31T03:43:37.793Z,7.45
2022-10-31T03:46:05.725Z,7.40
2022-10-31T03:48:32.736Z,8.43
2022-10-31T03:51:10.684Z,8.80
2022-10-31T03:53:53.969Z,9.88
2022-10-31T03:56:24.235Z,10.88
2022-10-31T03:59:05.721Z,13.70
2022-10-31T04:01:36.905Z,14.02
2022-10-31T04:04:05.029Z,13.48
2022-10-31T04:06:34.093Z,10.23
2022-10-31T04:09:04.850Z,8.57
2022-10-31T04:11:35.494Z,8.52
2022-10-31T04:14:05.256Z,8.93
2022-10-31T04:16:32.229Z,10.18
2022-10-31T04:18:59.172Z,9.15
2022-10-31T04:21:30.762Z,12.80
2022-10-31T04:23:58.723Z,13.95
2022-10-31T04:26:26.139Z,13.95
2022-10-31T04:28:52.709Z,12.90
2022-10-31T04:31:19.294Z,11.40
2022-10-31T04:33:46.476Z,10.65
2022-10-31T04:36:13.557Z,12.35
2022-10-31T04:38:40.526Z,12.27
2022-10-31T04:41:07.549Z,16.30
2022-10-31T04:43:34.525Z,15.38
2022-10-31T04:46:01.093Z,19.13
2022-10-31T04:48:28.154Z,25.17
2022-10-31T04:51:00.046Z,26.08
2022-10-31T04:53:26.988Z,25.05
2022-10-31T04:55:53.517Z,28.42
2022-10-31T04:58:20.467Z,22.48
2022-10-31T05:00:47.087Z,16.15
2022-10-31T05:03:14.079Z,12.85
2022-10-31T05:05:40.593Z,11.95
2022-10-31T05:08:07.117Z,10.38
2022-10-31T05:10:34.106Z,10.50
2022-10-31T05:13:03.118Z,10.85
2022-10-31T05:15:31.480Z,9.68
2022-10-31T05:17:58.906Z,9.65
2022-10-31T05:20:28.498Z,10.00
2022-10-31T05:22:57.680Z,10.75
2022-10-31T05:25:27.212Z,10.05
2022-10-31T05:27:55.323Z,12.60
2022-10-31T05:30:25.415Z,14.18
2022-10-31T05:32:52.949Z,14.25
2022-10-31T05:35:26.128Z,14.73
2022-10-31T05:37:53.357Z,15.18
2022-10-31T05:40:21.126Z,14.98
2022-10-31T05:42:48.730Z,15.18
2022-10-31T05:45:17.968Z,14.63
2022-10-31T05:48:01.570Z,15.70
2022-10-31T05:50:31.622Z,14.40
2022-10-31T05:53:04.864Z,16.13
2022-10-31T05:55:32.766Z,13.55
2022-10-31T05:57:59.925Z,12.52
2022-10-31T06:00:27.863Z,14.85
2022-10-31T06:03:05.953Z,15.02
2022-10-31T06:05:33.302Z,17.15
2022-10-31T06:08:00.539Z,15.55
2022-10-31T06:10:28.489Z,13.98
2022-10-31T06:12:55.532Z,15.38
2022-10-31T06:15:24.553Z,13.85
2022-10-31T06:18:04.291Z,16.83
2022-10-31T06:20:31.342Z,19.13
2022-10-31T06:22:58.688Z,17.60
2022-10-31T06:25:25.777Z,16.27
2022-10-31T06:27:52.778Z,16.40
2022-10-31T06:30:20.077Z,16.40
2022-10-31T06:32:47.022Z,17.83
2022-10-31T06:35:14.106Z,18.98
2022-10-31T06:37:40.678Z,20.98
2022-10-31T06:40:07.608Z,19.67
2022-10-31T06:42:34.628Z,19.20
2022-10-31T06:45:01.154Z,18.65
2022-10-31T06:47:30.434Z,21.80
2022-10-31T06:49:56.969Z,22.33
2022-10-31T06:52:24.303Z,22.85
2022-10-31T06:54:51.320Z,22.33
2022-10-31T06:57:17.892Z,23.73
2022-10-31T06:59:44.966Z,25.88
2022-10-31T07:02:11.866Z,25.65
2022-10-31T07:04:38.931Z,21.48
2022-10-31T07:07:05.486Z,24.25
2022-10-31T07:09:32.435Z,22.70
2022-10-31T07:11:58.976Z,27.60
2022-10-31T07:14:25.927Z,36.28
2022-10-31T07:16:52.885Z,33.72
2022-10-31T07:19:19.494Z,33.35
2022-10-31T07:21:46.722Z,34.95
2022-10-31T07:24:13.306Z,30.35
2022-10-31T07:26:39.864Z,30.75
2022-10-31T07:29:06.494Z,30.63
2022-10-31T07:31:33.079Z,29.17
2022-10-31T07:33:59.591Z,26.45
2022-10-31T07:36:26.177Z,25.95
2022-10-31T07:38:52.688Z,22.63
2022-10-31T07:41:19.223Z,29.15
2022-10-31T07:43:46.627Z,24.25
2022-10-31T07:46:13.280Z,25.00
2022-10-31T07:48:40.266Z,23.80
2022-10-31T07:51:07.870Z,23.42
2022-10-31T07:53:34.866Z,24.52
2022-10-31T07:56:01.852Z,22.60
2022-10-31T07:58:28.359Z,22.73
2022-10-31T08:00:55.102Z,25.63
2022-10-31T08:03:22.178Z,20.50
2022-10-31T08:05:48.733Z,21.17
2022-10-31T08:08:16.205Z,21.02
2022-10-31T08:10:43.460Z,17.05
2022-10-31T08:13:12.274Z,18.20
2022-10-31T08:15:42.079Z,20.65
2022-10-31T08:18:15.589Z,21.52
2022-10-31T08:20:43.132Z,22.40
2022-10-31T08:23:11.024Z,18.35
2022-10-31T08:25:38.810Z,20.17
2022-10-31T08:28:07.321Z,19.70
2022-10-31T08:30:36.937Z,18.50
2022-10-31T08:33:12.915Z,17.38
2022-10-31T08:35:39.868Z,18.33
2022-10-31T08:38:08.033Z,16.13
2022-10-31T08:40:36.331Z,16.98
2022-10-31T08:43:14.673Z,17.90
2022-10-31T08:45:42.592Z,19.58
2022-10-31T08:48:14.258Z,18.48
2022-10-31T08:50:42.020Z,17.60
2022-10-31T08:53:15.095Z,18.23
2022-10-31T08:55:42.896Z,15.88
2022-10-31T08:58:15.439Z,17.48
2022-10-31T09:00:42.547Z,17.90
2022-10-31T09:03:18.268Z,17.02
2022-10-31T09:05:45.555Z,18.33
2022-10-31T09:08:16.224Z,15.18
2022-10-31T09:10:44.326Z,16.92
2022-10-31T09:13:19.904Z,16.90
2022-10-31T09:15:48.380Z,15.23
2022-10-31T09:18:17.046Z,13.77
2022-10-31T09:20:45.005Z,14.95
2022-10-31T09:23:14.795Z,14.32
2022-10-31T09:25:44.009Z,14.98
2022-10-31T09:28:17.010Z,13.30
2022-10-31T09:30:44.108Z,13.77
2022-10-31T09:33:12.593Z,14.02
2022-10-31T09:35:40.243Z,15.27
2022-10-31T09:38:12.433Z,12.95
2022-10-31T09:40:45.349Z,12.50
2022-10-31T09:43:17.377Z,13.07
2022-10-31T09:46:03.783Z,14.70
2022-10-31T09:48:36.113Z,14.20
2022-10-31T09:51:16.616Z,14.73
2022-10-31T09:54:03.239Z,14.70
2022-10-31T09:56:31.837Z,14.43
2022-10-31T09:59:01.561Z,12.45
2022-10-31T10:01:50.855Z,13.15
2022-10-31T10:04:29.499Z,12.30
2022-10-31T10:06:56.622Z,13.13
2022-10-31T10:09:27.587Z,12.48
2022-10-31T10:12:05.940Z,11.95
2022-10-31T10:14:59.669Z,12.57
2022-10-31T10:17:39.595Z,12.63
2022-10-31T10:20:29.908Z,10.40
2022-10-31T10:23:14.870Z,13.15
2022-10-31T10:25:41.887Z,14.02
2022-10-31T10:28:15.838Z,11.18
2022-10-31T10:30:55.802Z,9.80
2022-10-31T10:33:29.126Z,11.95
2022-10-31T10:36:05.626Z,10.13
2022-10-31T10:38:52.950Z,10.02
2022-10-31T10:41:24.567Z,10.23
2022-10-31T10:43:52.946Z,11.00
2022-10-31T10:46:41.318Z,11.40
2022-10-31T10:49:18.740Z,13.20
2022-10-31T10:55:39.140Z,9.40
2022-10-31T10:58:08.858Z,10.23
2022-10-31T11:00:51.056Z,10.00
2022-10-31T11:03:18.899Z,8.68
2022-10-31T11:05:48.226Z,10.38
2022-10-31T11:08:27.980Z,9.77
2022-10-31T11:11:05.036Z,9.00
2022-10-31T11:13:33.812Z,9.90
2022-10-31T11:16:04.520Z,11.23
2022-10-31T11:18:36.100Z,9.68
2022-10-31T11:21:05.275Z,11.73
2022-10-31T11:23:33.392Z,9.60
2022-10-31T11:26:00.426Z,9.63
2022-10-31T11:28:30.215Z,9.35
2022-10-31T11:30:59.349Z,9.27
2022-10-31T11:33:34.140Z,9.05
2022-10-31T11:36:02.857Z,9.38
2022-10-31T11:38:40.432Z,8.38
2022-10-31T11:41:15.488Z,8.73
2022-10-31T11:43:52.130Z,8.40
2022-10-31T11:46:35.249Z,8.60
2022-10-31T11:49:02.560Z,9.35
2022-10-31T11:51:35.511Z,9.90
2022-10-31T11:54:04.887Z,8.90
2022-10-31T11:56:42.030Z,10.43
2022-10-31T11:59:28.086Z,9.20
2022-10-31T12:01:56.502Z,9.65
2022-10-31T12:04:45.402Z,11.63
2022-10-31T12:07:12.464Z,10.10
2022-10-31T12:09:39.754Z,9.90
2022-10-31T12:12:12.919Z,10.27
2022-10-31T12:15:01.840Z,9.55
2022-10-31T12:18:00.918Z,8.88
2022-10-31T12:20:57.824Z,8.57
2022-10-31T12:23:34.472Z,8.70
2022-10-31T12:26:18.172Z,9.48
2022-10-31T12:29:21.071Z,8.18
2022-10-31T12:32:09.475Z,10.20
2022-10-31T12:34:54.738Z,10.75
2022-10-31T12:38:05.649Z,9.02
2022-10-31T12:40:53.415Z,9.40
2022-10-31T12:43:41.855Z,10.13
2022-10-31T12:46:46.911Z,8.55
2022-10-31T12:49:46.003Z,8.85
2022-10-31T12:52:35.911Z,8.48
2022-10-31T12:55:04.222Z,9.05
2022-10-31T12:57:54.262Z,7.30
2022-10-31T13:00:24.225Z,6.43
2022-10-31T13:03:06.491Z,6.85
2022-10-31T13:05:38.291Z,6.93
2022-10-31T13:08:17.166Z,6.32
2022-10-31T13:11:04.465Z,6.57
2022-10-31T13:13:41.016Z,7.22
2022-10-31T13:16:19.388Z,7.53
2022-10-31T13:18:49.155Z,7.28
2022-10-31T13:21:25.977Z,6.95
2022-10-31T13:23:53.394Z,6.40
2022-10-31T13:26:42.891Z,6.00
2022-10-31T13:29:27.022Z,5.65
2022-10-31T13:31:56.665Z,5.55
2022-10-31T13:34:25.853Z,5.63
2022-10-31T13:37:27.371Z,6.75
2022-10-31T13:40:36.470Z,5.65
2022-10-31T13:43:14.667Z,5.28
2022-10-31T13:45:53.400Z,5.20
2022-10-31T13:48:37.020Z,6.32
2022-10-31T13:51:09.576Z,5.68
2022-10-31T13:53:40.448Z,5.05
2022-10-31T13:56:09.715Z,4.65
2022-10-31T13:58:37.043Z,4.15
2022-10-31T14:01:25.822Z,5.03
2022-10-31T14:04:20.622Z,4.43
2022-10-31T14:07:11.596Z,4.10
2022-10-31T14:09:53.116Z,4.10
2022-10-31T14:12:34.737Z,5.22
2022-10-31T14:15:18.736Z,5.75
2022-10-31T14:17:56.677Z,6.18
2022-10-31T14:20:45.501Z,5.18
2022-10-31T14:23:31.251Z,5.30
2022-10-31T14:26:08.971Z,5.28
2022-10-31T14:28:37.805Z,4.93
2022-10-31T14:31:36.249Z,5.00
2022-10-31T14:34:09.302Z,5.60
2022-10-31T14:36:51.024Z,6.32
2022-10-31T14:39:41.004Z,5.43
2022-10-31T14:42:37.340Z,6.18
2022-10-31T14:45:37.136Z,5.88
2022-10-31T14:48:28.633Z,5.43
2022-10-31T14:51:01.137Z,6.68
2022-10-31T14:53:50.174Z,6.35
2022-10-31T14:56:33.256Z,5.68
2022-10-31T14:59:12.101Z,6.15
2022-10-31T15:01:41.334Z,6.40
2022-10-31T15:04:25.315Z,6.40
2022-10-31T15:07:07.495Z,7.07
2022-10-31T15:09:38.532Z,8.43
2022-10-31T15:12:24.785Z,11.38
2022-10-31T15:14:51.867Z,11.45
2022-10-31T15:17:18.677Z,10.20
2022-10-31T15:19:46.066Z,8.13
2022-10-31T15:22:17.855Z,9.50
2022-10-31T15:24:45.833Z,8.60
2022-10-31T15:27:18.114Z,8.70
2022-10-31T15:29:51.880Z,8.55
2022-10-31T15:32:27.539Z,9.55
2022-10-31T15:34:56.581Z,9.32
2022-10-31T15:37:25.883Z,9.93
2022-10-31T15:39:53.075Z,11.05
2022-10-31T15:42:21.727Z,11.45
2022-10-31T15:44:53.528Z,12.05
2022-10-31T15:47:23.257Z,12.98
2022-10-31T15:49:53.588Z,13.52
2022-10-31T15:52:30.197Z,13.02
2022-10-31T15:55:07.032Z,17.08
2022-10-31T15:57:34.749Z,19.20
2022-10-31T16:00:01.798Z,14.80
2022-10-31T16:02:29.219Z,15.50
2022-10-31T16:04:59.584Z,15.35
2022-10-31T16:07:27.297Z,17.23
2022-10-31T16:10:00.600Z,18.55
2022-10-31T16:12:37.402Z,17.17
2022-10-31T16:15:06.274Z,17.02
2022-10-31T16:17:33.523Z,16.27
2022-10-31T16:20:03.897Z,15.88
2022-10-31T16:22:38.882Z,18.25
2022-10-31T16:25:14.986Z,17.33
2022-10-31T16:27:53.905Z,16.50
2022-10-31T16:30:44.011Z,16.67
2022-10-31T16:33:37.616Z,16.83
2022-10-31T16:36:35.233Z,19.52
2022-10-31T16:39:02.797Z,19.00
2022-10-31T16:41:29.438Z,21.67
2022-10-31T16:43:56.626Z,19.00
2022-10-31T16:46:25.963Z,17.98
2022-10-31T16:48:53.715Z,17.23
2022-10-31T16:51:20.312Z,17.42
2022-10-31T16:53:47.421Z,18.50
2022-10-31T16:56:18.938Z,18.17
2022-10-31T16:58:46.390Z,15.82
2022-10-31T17:01:14.093Z,16.05
2022-10-31T17:03:41.330Z,17.30
2022-10-31T17:06:14.639Z,16.13
2022-10-31T17:08:42.351Z,15.48
2022-10-31T17:11:19.792Z,15.77
2022-10-31T17:13:47.022Z,17.73
2022-10-31T17:16:15.249Z,16.70
2022-10-31T17:18:44.159Z,16.10
2022-10-31T17:21:19.619Z,14.43
2022-10-31T17:23:46.733Z,15.30
2022-10-31T17:26:13.737Z,15.77
2022-10-31T17:28:40.682Z,15.75
2022-10-31T17:31:13.462Z,15.63
2022-10-31T17:33:40.085Z,14.65
2022-10-31T17:36:07.088Z,15.93
2022-10-31T17:38:33.617Z,16.70
2022-10-31T17:41:10.024Z,13.85
2022-10-31T17:43:37.979Z,17.13
2022-10-31T17:46:05.156Z,15.60
2022-10-31T17:48:33.719Z,13.73
2022-10-31T17:51:02.076Z,15.55
2022-10-31T17:53:33.388Z,17.27
2022-10-31T17:56:01.781Z,15.27
2022-10-31T17:58:29.319Z,16.02
2022-10-31T18:00:56.151Z,16.65
2022-10-31T18:03:23.192Z,17.20
2022-10-31T18:05:58.339Z,19.55
2022-10-31T18:08:30.042Z,18.38
2022-10-31T18:11:00.431Z,17.08
2022-10-31T18:13:28.265Z,17.35
2022-10-31T18:15:55.857Z,16.25
2022-10-31T18:18:22.475Z,15.93
2022-10-31T18:20:49.017Z,17.08
2022-10-31T18:23:15.586Z,19.05
2022-10-31T18:25:43.409Z,17.38
2022-10-31T18:28:10.778Z,16.50
2022-10-31T18:30:41.773Z,17.35
2022-10-31T18:33:09.125Z,17.35
2022-10-31T18:35:38.419Z,18.15
2022-10-31T18:38:06.137Z,17.83
2022-10-31T18:40:36.226Z,16.27
2022-10-31T18:43:03.354Z,17.52
2022-10-31T18:45:41.582Z,18.25
2022-10-31T18:48:14.302Z,16.80
2022-10-31T18:50:41.581Z,19.60
2022-10-31T18:53:08.548Z,17.70
2022-10-31T18:55:43.885Z,19.73
2022-10-31T18:58:13.997Z,17.65
2022-10-31T19:00:40.994Z,18.63
2022-10-31T19:03:07.978Z,17.85
2022-10-31T19:05:34.544Z,18.02
2022-10-31T19:08:01.499Z,19.70
2022-10-31T19:10:28.777Z,19.33
2022-10-31T19:12:55.808Z,17.92
2022-10-31T19:15:22.345Z,16.45
2022-10-31T19:17:49.609Z,19.35
2022-10-31T19:20:16.581Z,18.80
2022-10-31T19:22:43.404Z,16.40
2022-10-31T19:25:11.267Z,15.23
2022-10-31T19:27:38.786Z,15.57
2022-10-31T19:30:07.053Z,16.98
2022-10-31T19:32:34.262Z,17.15
2022-10-31T19:35:01.321Z,17.67
2022-10-31T19:37:28.297Z,16.60
2022-10-31T19:39:54.836Z,16.50
2022-10-31T19:42:21.381Z,16.80
2022-10-31T19:44:48.381Z,16.70
2022-10-31T19:47:14.995Z,18.58
2022-10-31T19:49:41.953Z,19.35
2022-10-31T19:52:08.499Z,18.52
2022-10-31T19:54:35.469Z,16.65
2022-10-31T19:57:02.011Z,17.13
2022-10-31T19:59:29.034Z,17.95
2022-10-31T20:01:56.097Z,19.70
2022-10-31T20:04:23.230Z,18.55
2022-10-31T20:06:49.773Z,16.90
2022-10-31T20:09:16.956Z,19.77
2022-10-31T20:11:45.998Z,18.58
2022-10-31T20:14:15.581Z,19.50
2022-10-31T20:16:43.105Z,21.10
2022-10-31T20:19:09.913Z,21.38
2022-10-31T20:21:39.569Z,20.17
2022-10-31T20:24:09.048Z,22.75
2022-10-31T20:26:37.678Z,21.48
2022-10-31T20:29:04.393Z,20.50
2022-10-31T20:31:34.261Z,20.48
2022-10-31T20:34:01.384Z,20.98
2022-10-31T20:36:29.902Z,20.00
2022-10-31T20:38:56.590Z,20.27
2022-10-31T20:41:23.639Z,20.02
2022-10-31T20:43:50.670Z,19.02
2022-10-31T20:46:24.567Z,22.73
2022-10-31T20:48:51.865Z,21.83
2022-10-31T20:51:25.123Z,22.67
2022-10-31T20:53:53.404Z,19.52
2022-10-31T20:56:21.821Z,19.33
2022-10-31T20:58:49.747Z,17.85
2022-10-31T21:01:22.510Z,18.48
2022-10-31T21:03:49.878Z,18.00
2022-10-31T21:06:18.157Z,18.23
2022-10-31T21:08:45.552Z,16.70
2022-10-31T21:11:16.598Z,17.55
2022-10-31T21:13:45.085Z,18.25
2022-10-31T21:16:19.461Z,18.33
2022-10-31T21:18:47.659Z,16.85
2022-10-31T21:21:18.129Z,17.33
2022-10-31T21:23:45.151Z,15.43
2022-10-31T21:26:16.183Z,15.48
2022-10-31T21:28:44.030Z,17.48
2022-10-31T21:31:12.744Z,17.25
2022-10-31T21:33:40.799Z,16.40
2022-10-31T21:36:08.070Z,15.13
2022-10-31T21:38:35.396Z,19.77
2022-10-31T21:41:05.572Z,16.13
2022-10-31T21:43:34.868Z,14.95
2022-10-31T21:46:08.667Z,17.60
2022-10-31T21:48:42.285Z,17.15
2022-10-31T21:51:12.339Z,16.70
2022-10-31T21:53:58.026Z,15.10
2022-10-31T21:56:25.138Z,16.08
2022-10-31T21:58:52.590Z,16.17
2022-10-31T22:01:20.897Z,16.17
2022-10-31T22:03:47.706Z,17.30
2022-10-31T22:06:18.289Z,17.98
2022-10-31T22:08:45.005Z,17.52
2022-10-31T22:11:17.098Z,16.08
2022-10-31T22:13:46.175Z,18.15
2022-10-31T22:16:15.270Z,18.88
2022-10-31T22:18:42.950Z,16.98
2022-10-31T22:21:12.694Z,19.13
2022-10-31T22:23:40.254Z,18.05
2022-10-31T22:26:14.104Z,19.42
2022-10-31T22:28:42.432Z,16.55
2022-10-31T22:33:44.557Z,20.10
2022-10-31T22:36:15.592Z,18.75
2022-10-31T22:38:42.326Z,18.65
2022-10-31T22:41:18.118Z,18.45
2022-10-31T22:43:45.984Z,20.17
2022-10-31T22:46:15.683Z,21.42
2022-10-31T22:48:48.221Z,20.38
2022-10-31T22:51:19.513Z,20.67
2022-10-31T22:53:46.616Z,20.50
2022-10-31T22:56:18.936Z,19.83
2022-10-31T22:58:45.894Z,18.75
2022-10-31T23:01:19.456Z,18.13
2022-10-31T23:03:46.960Z,18.13
2022-10-31T23:06:16.021Z,20.75
2022-10-31T23:08:43.722Z,22.73
2022-10-31T23:11:33.664Z,22.23
2022-10-31T23:14:14.578Z,21.63
2022-10-31T23:16:46.033Z,20.88
2022-10-31T23:19:19.702Z,20.88
2022-10-31T23:21:55.614Z,21.40
2022-10-31T23:24:29.997Z,23.50
2022-10-31T23:27:08.169Z,21.77
2022-10-31T23:29:58.065Z,22.08
2022-10-31T23:32:25.943Z,22.33
2022-10-31T23:34:56.248Z,23.63
2022-10-31T23:37:26.365Z,22.65
2022-10-31T23:39:54.088Z,22.48
2022-10-31T23:42:20.977Z,20.67
2022-10-31T23:44:48.868Z,23.67
2022-10-31T23:47:16.317Z,21.27
2022-10-31T23:49:43.327Z,23.45
2022-10-31T23:52:10.742Z,20.88
2022-10-31T23:54:37.453Z,20.08
2022-10-31T23:57:05.285Z,20.83
2022-10-31T23:59:32.762Z,23.88
